Time;durP1;ratioP1;P1;durP2;ratioP2;P2;SDS_P1;SDS_P2;PMS_P1;PMS_P2;Temp;Humidity;BMP_temperature;BMP_pressure;BME280_temperature;BME280_humidity;BME280_pressure;Samples;Min_cycle;Max_cycle;Signal;HPM_P1;HPM_P2
2021/05/09 00:00:32;;;;;;;25.03;16.77;;;;;;;6.16;66.60;101094.53;1811741;77;32857;-72
2021/05/09 00:03:07;;;;;;;25.08;14.80;;;;;;;6.40;66.20;101089.17;1790019;79;26330;-73
2021/05/09 00:05:43;;;;;;;26.10;15.93;;;;;;;6.26;66.28;101090.52;1789806;79;25752;-72
2021/05/09 00:08:19;;;;;;;24.30;14.13;;;;;;;6.15;66.39;101086.22;1784929;79;26203;-72
2021/05/09 00:10:55;;;;;;;29.42;15.32;;;;;;;6.10;66.53;101080.98;1829055;77;25647;-72
2021/05/09 00:13:31;;;;;;;28.90;14.85;;;;;;;6.02;66.63;101083.05;1833469;77;25701;-71
2021/05/09 00:16:07;;;;;;;23.40;15.72;;;;;;;5.98;66.65;101083.00;1780741;78;26400;-73
2021/05/09 00:18:42;;;;;;;29.00;17.97;;;;;;;5.95;66.76;101082.44;1803447;77;28205;-72
2021/05/09 00:21:18;;;;;;;29.23;16.80;;;;;;;6.15;66.52;101081.39;1784806;79;25731;-72
2021/05/09 00:23:54;;;;;;;25.25;16.00;;;;;;;5.97;66.83;101081.31;1828250;77;25697;-73
2021/05/09 00:26:30;;;;;;;27.98;15.53;;;;;;;5.83;67.13;101073.78;1826032;77;25833;-72
2021/05/09 00:29:05;;;;;;;26.95;15.50;;;;;;;5.77;67.39;101063.73;1784304;79;25975;-72
2021/05/09 00:31:41;;;;;;;24.72;15.35;;;;;;;5.72;67.41;101072.62;1783099;79;25630;-74
2021/05/09 00:34:17;;;;;;;27.85;16.32;;;;;;;5.66;67.55;101078.52;1793864;79;25702;-71
2021/05/09 00:36:53;;;;;;;27.70;15.80;;;;;;;5.61;67.76;101079.42;1829960;77;25688;-72
2021/05/09 00:39:32;;;;;;;25.57;17.77;;;;;;;5.56;67.73;101075.53;1743729;79;27948;-72
2021/05/09 00:42:08;;;;;;;25.82;14.85;;;;;;;5.81;67.32;101066.93;1746933;79;25746;-72
2021/05/09 00:44:44;;;;;;;28.57;18.63;;;;;;;5.66;67.31;101071.88;1873411;74;28344;-72
2021/05/09 00:47:20;;;;;;;28.90;16.67;;;;;;;5.89;67.06;101069.73;1799726;78;25710;-71
2021/05/09 00:49:57;;;;;;;30.70;16.95;;;;;;;5.78;67.23;101068.53;1798745;79;26102;-72
2021/05/09 00:52:40;;;;;;;24.87;16.30;;;;;;;5.71;67.41;101071.45;1793699;79;25760;-72
2021/05/09 00:55:17;;;;;;;23.98;16.48;;;;;;;5.62;67.56;101064.33;1798758;79;25729;-72
2021/05/09 00:57:56;;;;;;;25.05;15.25;;;;;;;5.58;67.70;101062.94;1834146;77;25780;-73
2021/05/09 01:00:32;;;;;;;22.50;15.48;;;;;;;5.54;67.77;101068.20;1783146;79;25752;-72
2021/05/09 01:03:10;;;;;;;29.23;18.30;;;;;;;5.51;67.83;101069.80;1777375;79;27762;-72
2021/05/09 01:05:46;;;;;;;22.75;16.07;;;;;;;5.76;67.39;101067.36;1780497;79;25706;-71
2021/05/09 01:08:23;;;;;;;26.27;15.45;;;;;;;5.66;67.42;101074.53;1833832;77;25677;-72
2021/05/09 01:10:59;;;;;;;25.87;17.57;;;;;;;5.57;67.58;101075.87;1814983;77;27880;-73
2021/05/09 01:13:35;;;;;;;27.23;19.00;;;;;;;5.77;67.23;101077.51;1807080;77;32553;-72
2021/05/09 01:16:10;;;;;;;24.40;17.50;;;;;;;5.95;66.85;101075.78;1817592;77;32724;-72
2021/05/09 01:18:46;;;;;;;24.47;15.80;;;;;;;6.09;66.65;101074.81;1789987;79;25675;-73
2021/05/09 01:21:23;;;;;;;29.17;18.63;;;;;;;5.88;66.66;101073.38;1802371;77;32690;-71
2021/05/09 01:23:58;;;;;;;26.53;17.77;;;;;;;6.00;66.25;101069.06;1806688;77;34835;-71
2021/05/09 01:26:35;;;;;;;28.62;17.05;;;;;;;6.14;66.06;101075.71;1780210;79;26265;-72
2021/05/09 01:29:11;;;;;;;26.23;18.37;;;;;;;5.86;66.20;101070.84;1776191;79;27896;-72
2021/05/09 01:31:48;;;;;;;27.73;17.40;;;;;;;6.01;66.08;101077.86;1803924;77;35335;-72
2021/05/09 01:34:26;;;;;;;23.60;16.67;;;;;;;6.06;65.69;101084.44;1789331;79;25741;-72
2021/05/09 01:37:04;;;;;;;23.60;15.95;;;;;;;5.76;66.42;101076.66;1798023;79;25780;-73
2021/05/09 01:39:40;;;;;;;27.82;17.23;;;;;;;5.58;66.55;101078.38;1802093;79;25734;-72
2021/05/09 01:42:16;;;;;;;26.33;16.17;;;;;;;5.43;66.88;101079.83;1793687;79;25707;-72
2021/05/09 01:44:55;;;;;;;28.20;18.10;;;;;;;5.34;67.08;101078.02;1830245;77;25729;-72
2021/05/09 01:47:31;;;;;;;29.70;16.48;;;;;;;5.20;67.28;101080.59;1793252;79;25729;-72
2021/05/09 01:50:12;;;;;;;26.67;17.93;;;;;;;5.11;67.55;101080.62;1773636;79;32533;-72
2021/05/09 01:52:48;;;;;;;24.00;16.85;;;;;;;5.31;67.40;101083.59;1786818;79;26099;-72
2021/05/09 01:55:25;;;;;;;29.00;16.75;;;;;;;5.18;67.42;101079.05;1818314;77;25704;-72
2021/05/09 01:58:03;;;;;;;27.58;16.65;;;;;;;5.05;67.43;101084.65;1784759;79;25801;-72
2021/05/09 02:00:57;;;;;;;27.45;17.48;;;;;;;4.98;67.67;101085.36;1823326;77;25805;-71
2021/05/09 02:03:34;;;;;;;25.92;15.68;;;;;;;4.94;67.89;101090.09;1828687;77;25632;-73
2021/05/09 02:06:11;;;;;;;27.77;19.57;;;;;;;4.89;67.99;101093.67;1807561;77;27834;-72
2021/05/09 02:08:47;;;;;;;28.83;19.67;;;;;;;5.14;67.73;101089.61;1810894;77;32965;-72
2021/05/09 02:11:40;;;;;;;31.70;18.70;;;;;;;5.35;67.51;101085.83;1832984;77;25810;-75
2021/05/09 02:14:17;;;;;;;29.63;17.45;;;;;;;5.20;67.76;101087.72;1793347;79;25693;-71
2021/05/09 02:16:55;;;;;;;29.25;18.10;;;;;;;5.13;67.96;101095.91;1833331;77;25660;-72
2021/05/09 02:19:31;;;;;;;27.67;18.87;;;;;;;5.01;68.16;101096.53;1813486;77;27873;-72
2021/05/09 02:22:07;;;;;;;25.87;18.90;;;;;;;5.20;67.88;101097.86;1755671;79;32618;-73
2021/05/09 02:24:46;;;;;;;26.97;18.60;;;;;;;5.31;67.55;101109.67;1812683;77;32946;-73
2021/05/09 02:27:22;;;;;;;23.92;16.00;;;;;;;5.43;67.36;101107.20;1827636;77;25715;-72
2021/05/09 02:29:58;;;;;;;25.12;16.12;;;;;;;5.22;67.56;101101.21;1792260;79;25711;-72
2021/05/09 02:32:40;;;;;;;22.73;15.50;;;;;;;5.05;67.59;101103.23;1795773;79;25772;-72
2021/05/09 02:35:16;;;;;;;23.50;17.50;;;;;;;4.90;67.69;101109.11;1808118;77;28340;-73
2021/05/09 02:37:52;;;;;;;24.40;15.43;;;;;;;5.07;67.39;101107.10;1786076;79;26273;-72
2021/05/09 02:40:28;;;;;;;28.50;19.00;;;;;;;4.87;67.49;101107.56;1738067;79;28642;-71
2021/05/09 02:43:05;;;;;;;25.62;16.07;;;;;;;5.03;67.47;101100.36;1802232;79;25695;-72
2021/05/09 02:45:41;;;;;;;25.20;18.10;;;;;;;4.87;67.67;101106.24;1810891;77;28422;-71
2021/05/09 02:48:17;;;;;;;26.00;18.17;;;;;;;5.04;67.50;101099.40;1807552;77;35432;-72
2021/05/09 02:50:53;;;;;;;25.75;17.07;;;;;;;5.20;67.32;101101.84;1768766;79;25653;-72
2021/05/09 02:53:30;;;;;;;29.75;16.35;;;;;;;5.01;67.50;101095.69;1812524;77;25314;-72
2021/05/09 02:56:06;;;;;;;25.97;18.83;;;;;;;4.85;67.76;101100.23;1765235;79;32883;-72
2021/05/09 02:58:42;;;;;;;26.02;18.00;;;;;;;5.03;67.51;101101.69;1829785;77;25773;-72
2021/05/09 03:01:18;;;;;;;26.80;18.33;;;;;;;4.90;67.81;101098.50;1802872;77;27847;-72
2021/05/09 03:03:54;;;;;;;28.67;19.60;;;;;;;5.08;67.70;101090.17;1776169;79;35279;-72
2021/05/09 03:06:31;;;;;;;25.75;17.95;;;;;;;5.24;67.58;101099.25;1811008;77;28508;-72
2021/05/09 03:09:07;;;;;;;28.40;19.20;;;;;;;5.38;67.44;101099.33;1811668;77;27906;-72
2021/05/09 03:11:43;;;;;;;28.37;19.33;;;;;;;5.48;67.28;101108.11;1819529;77;28348;-73
2021/05/09 03:14:20;;;;;;;29.25;21.05;;;;;;;5.54;67.15;101108.87;1812339;77;27897;-72
2021/05/09 03:16:56;;;;;;;33.33;19.37;;;;;;;5.64;67.00;101107.06;1795057;79;25667;-72
2021/05/09 03:19:32;;;;;;;35.17;24.97;;;;;;;5.40;67.15;101107.51;1797364;77;32640;-72
2021/05/09 03:22:07;;;;;;;37.60;21.33;;;;;;;5.49;67.04;101105.30;1747239;79;25776;-72
2021/05/09 03:24:43;;;;;;;36.10;19.65;;;;;;;5.28;67.39;101103.30;1822267;77;26429;-73
2021/05/09 03:27:19;;;;;;;29.40;17.90;;;;;;;5.12;67.65;101100.38;1796309;79;25711;-71
2021/05/09 03:29:55;;;;;;;29.37;21.23;;;;;;;5.00;67.94;101098.00;1769032;79;35084;-71
2021/05/09 03:32:30;;;;;;;32.73;19.73;;;;;;;5.17;67.73;101096.83;1784093;79;26367;-71
2021/05/09 03:35:08;;;;;;;26.05;17.60;;;;;;;5.04;68.00;101106.04;1827282;77;26036;-71
2021/05/09 03:37:44;;;;;;;34.45;18.95;;;;;;;4.93;68.33;101104.84;1800024;79;25894;-71
2021/05/09 03:40:20;;;;;;;28.32;19.48;;;;;;;4.86;68.63;101102.38;1789625;79;25905;-72
2021/05/09 03:42:55;;;;;;;29.72;19.05;;;;;;;4.87;69.00;101108.05;1821479;77;26325;-72
2021/05/09 03:45:31;;;;;;;27.33;19.90;;;;;;;4.90;69.26;101107.27;1786318;79;32719;-72
2021/05/09 03:48:08;;;;;;;27.37;19.87;;;;;;;5.24;68.95;101103.23;1780094;79;33003;-72
2021/05/09 03:50:44;;;;;;;28.93;19.37;;;;;;;5.67;68.78;101105.91;1778436;79;28642;-71
2021/05/09 03:53:19;;;;;;;25.37;18.23;;;;;;;6.07;68.47;101103.89;1776219;79;33625;-72
2021/05/09 03:55:56;;;;;;;25.13;18.47;;;;;;;6.45;68.14;101104.20;1813386;77;35978;-71
2021/05/09 03:58:32;;;;;;;23.75;16.12;;;;;;;6.79;68.00;101105.27;1836896;76;25708;-72
2021/05/09 04:01:08;;;;;;;26.67;19.17;;;;;;;6.70;68.33;101092.36;1767383;79;32768;-72
2021/05/09 04:03:44;;;;;;;24.40;19.00;;;;;;;6.87;67.69;101094.21;1765916;79;32451;-72
2021/05/09 04:06:20;;;;;;;26.33;19.40;;;;;;;6.91;67.45;101094.25;1785418;79;32557;-72
2021/05/09 04:08:56;;;;;;;26.27;18.90;;;;;;;6.97;67.44;101096.82;1813398;77;32479;-73
2021/05/09 04:11:33;;;;;;;24.87;17.30;;;;;;;7.03;67.41;101087.38;1794401;79;32388;-72
2021/05/09 04:14:09;;;;;;;24.75;16.00;;;;;;;7.10;67.40;101097.25;1797068;79;25674;-71
2021/05/09 04:16:45;;;;;;;26.97;18.03;;;;;;;6.91;67.97;101093.41;1779738;79;32565;-74
2021/05/09 04:19:21;;;;;;;24.47;18.47;;;;;;;7.09;68.02;101099.59;1776674;79;38191;-72
2021/05/09 04:21:57;;;;;;;24.03;18.87;;;;;;;7.23;68.12;101094.23;1813097;77;32473;-71
2021/05/09 04:24:33;;;;;;;23.07;17.40;;;;;;;7.36;67.93;101090.66;1780740;79;32516;-72
2021/05/09 04:27:09;;;;;;;24.37;17.73;;;;;;;7.51;67.92;101089.11;1770800;79;35287;-71
2021/05/09 04:29:45;;;;;;;24.07;16.93;;;;;;;7.64;68.01;101085.55;1769369;79;38346;-72
2021/05/09 04:32:22;;;;;;;21.07;16.33;;;;;;;7.75;67.74;101086.14;1774234;79;38830;-72
2021/05/09 04:34:58;;;;;;;23.65;16.82;;;;;;;7.88;67.41;101082.20;1779351;78;27848;-72
2021/05/09 04:37:34;;;;;;;21.50;16.03;;;;;;;7.99;67.42;101081.94;1817992;77;32684;-72
2021/05/09 04:40:11;;;;;;;22.70;16.17;;;;;;;8.09;67.44;101082.66;1810080;77;32878;-72
2021/05/09 04:42:48;;;;;;;19.80;14.70;;;;;;;8.20;67.29;101080.55;1822807;77;25812;-72
2021/05/09 04:45:24;;;;;;;19.37;14.45;;;;;;;8.09;67.80;101084.83;1810172;77;38804;-73
2021/05/09 04:48:01;;;;;;;18.93;14.33;;;;;;;8.30;67.46;101087.12;1778413;79;34759;-72
2021/05/09 04:50:37;;;;;;;20.57;14.80;;;;;;;8.43;67.07;101085.69;1807200;76;29246;-72
2021/05/09 04:53:37;;;;;;;24.40;18.87;;;;;;;8.53;66.57;101079.70;1812471;77;32534;-71
2021/05/09 04:56:13;;;;;;;24.25;17.12;;;;;;;8.60;66.65;101081.23;1793783;79;25733;-73
2021/05/09 05:01:14;;;;;;;26.33;17.82;;;;;;;8.53;66.94;101078.89;1826408;77;25667;-72
2021/05/09 05:03:49;;;;;;;35.80;20.93;;;;;;;8.43;67.40;101072.34;1786283;79;32402;-72
2021/05/09 05:06:25;;;;;;;26.07;16.05;;;;;;;8.62;66.95;101069.89;1773027;79;25777;-74
2021/05/09 05:09:01;;;;;;;21.48;15.30;;;;;;;8.46;67.23;101071.19;1788587;79;26292;-72
2021/05/09 05:11:37;;;;;;;21.80;15.98;;;;;;;8.42;67.40;101073.84;1782073;79;25729;-71
2021/05/09 05:14:12;;;;;;;25.62;14.70;;;;;;;8.42;67.78;101073.36;1823237;77;25800;-72
2021/05/09 05:16:48;;;;;;;19.65;13.05;;;;;;;8.43;67.85;101067.49;1789573;79;25740;-72
2021/05/09 05:19:24;;;;;;;20.82;12.85;;;;;;;8.47;68.11;101067.50;1776736;79;25812;-72
2021/05/09 05:22:02;;;;;;;17.42;11.65;;;;;;;8.54;67.88;101070.72;1817565;77;25757;-72
2021/05/09 05:24:38;;;;;;;20.43;13.35;;;;;;;8.62;68.03;101067.74;1794248;79;25681;-72
2021/05/09 05:27:14;;;;;;;21.35;14.47;;;;;;;8.68;68.12;101061.75;1802474;79;25779;-72
2021/05/09 05:29:50;;;;;;;17.87;13.62;;;;;;;8.77;68.21;101064.78;1837113;77;25697;-73
2021/05/09 05:32:26;;;;;;;17.57;13.78;;;;;;;8.82;67.42;101068.61;1793438;79;25306;-72
2021/05/09 05:35:01;;;;;;;20.17;15.68;;;;;;;8.87;67.84;101064.96;1793701;79;25725;-72
2021/05/09 05:37:37;;;;;;;21.27;14.18;;;;;;;8.95;68.01;101062.30;1789481;79;25757;-72
2021/05/09 05:40:14;;;;;;;20.10;12.88;;;;;;;9.05;67.71;101060.79;1791457;79;25777;-73
2021/05/09 05:42:51;;;;;;;19.32;12.58;;;;;;;9.13;67.41;101065.64;1815538;77;25745;-72
2021/05/09 05:45:26;;;;;;;17.92;12.85;;;;;;;9.21;67.05;101066.16;1815531;77;28687;-73
2021/05/09 05:48:02;;;;;;;20.20;12.23;;;;;;;9.51;66.43;101068.16;1789770;79;25935;-72
2021/05/09 05:50:39;;;;;;;18.82;12.95;;;;;;;9.77;66.37;101059.41;1771238;79;38950;-72
2021/05/09 05:53:25;;;;;;;18.10;13.00;;;;;;;9.83;66.20;101062.77;1812112;77;25705;-72
2021/05/09 05:56:01;;;;;;;17.73;11.65;;;;;;;9.90;66.82;101062.92;1790760;79;25663;-71
2021/05/09 05:58:36;;;;;;;16.65;12.28;;;;;;;9.94;66.41;101065.59;1784611;79;25756;-72
2021/05/09 06:01:12;;;;;;;20.70;12.35;;;;;;;10.00;66.25;101064.89;1819249;77;25717;-73
2021/05/09 06:03:48;;;;;;;19.80;11.80;;;;;;;10.08;65.95;101064.86;1829893;77;26402;-72
2021/05/09 06:06:24;;;;;;;18.32;11.40;;;;;;;10.17;65.57;101061.19;1782069;78;25822;-76
2021/05/09 06:09:01;;;;;;;16.77;10.88;;;;;;;10.27;66.21;101060.47;1806413;77;25700;-73
2021/05/09 06:11:37;;;;;;;18.10;12.43;;;;;;;10.41;66.52;101057.09;1748032;79;25765;-74
2021/05/09 06:14:13;;;;;;;19.12;12.18;;;;;;;10.55;66.35;101049.63;1814353;77;25745;-73
2021/05/09 06:16:49;;;;;;;18.90;12.20;;;;;;;10.69;66.75;101052.08;1783329;79;26340;-75
2021/05/09 06:19:25;;;;;;;17.47;12.43;;;;;;;10.79;66.05;101050.00;1769447;79;32367;-74
2021/05/09 06:22:00;;;;;;;16.23;11.85;;;;;;;11.13;65.14;101043.73;1787601;79;25893;-74
2021/05/09 06:24:36;;;;;;;23.95;12.55;;;;;;;11.19;65.23;101043.50;1803531;79;25711;-74
2021/05/09 06:27:12;;;;;;;16.48;11.03;;;;;;;11.28;65.29;101043.77;1791842;79;25691;-75
2021/05/09 06:29:48;;;;;;;16.02;10.30;;;;;;;11.39;65.31;101044.69;1832466;77;25858;-75
2021/05/09 06:32:24;;;;;;;17.03;11.47;;;;;;;11.51;64.94;101043.23;1774429;79;35447;-75
2021/05/09 06:35:00;;;;;;;17.37;11.28;;;;;;;11.83;64.34;101035.39;1826241;77;25690;-76
2021/05/09 06:37:35;;;;;;;13.50;9.65;;;;;;;11.89;63.37;101027.97;1776234;79;25975;-75
2021/05/09 06:40:12;;;;;;;14.10;8.25;;;;;;;11.96;63.45;101034.23;1787364;79;25757;-78
2021/05/09 06:42:59;;;;;;;13.72;8.43;;;;;;;12.07;62.85;101029.25;1805299;77;28544;-75
2021/05/09 06:45:36;;;;;;;11.90;6.65;;;;;;;12.38;61.11;101014.27;1837110;77;25900;-76
2021/05/09 06:48:12;;;;;;;14.00;8.90;;;;;;;12.41;60.85;101015.22;1818595;77;32961;-75
2021/05/09 06:50:48;;;;;;;10.93;7.60;;;;;;;12.72;60.29;101014.45;1777113;78;28300;-75
2021/05/09 06:53:24;;;;;;;13.37;8.47;;;;;;;12.97;59.44;101009.52;1767168;79;32408;-75
2021/05/09 06:56:00;;;;;;;9.60;6.58;;;;;;;13.19;57.98;101010.38;1782813;79;26106;-75
2021/05/09 06:58:35;;;;;;;9.50;5.45;;;;;;;13.18;57.96;101016.27;1796998;79;25745;-73
2021/05/09 07:01:13;;;;;;;8.88;5.60;;;;;;;13.20;56.34;101013.37;1791014;78;25730;-72
2021/05/09 07:03:50;;;;;;;10.98;5.97;;;;;;;13.23;56.80;101017.04;1771376;79;25698;-74
2021/05/09 07:06:26;;;;;;;7.42;5.58;;;;;;;13.26;56.00;101012.63;1791357;77;25666;-74
2021/05/09 07:09:09;;;;;;;11.15;6.00;;;;;;;13.30;55.83;101013.36;1786389;79;26426;-75
2021/05/09 07:11:45;;;;;;;8.30;5.75;;;;;;;13.39;55.46;101020.78;1777886;79;25773;-72
2021/05/09 07:14:21;;;;;;;8.60;5.03;;;;;;;13.45;53.84;101011.42;1827591;77;25744;-75
2021/05/09 07:16:57;;;;;;;9.70;5.47;;;;;;;13.51;55.14;101016.05;1837820;77;25755;-73
2021/05/09 07:19:33;;;;;;;9.03;5.80;;;;;;;13.59;53.56;101014.55;1809883;77;27897;-74
2021/05/09 07:22:14;;;;;;;9.93;6.07;;;;;;;13.84;52.52;101014.91;1758310;79;38311;-74
2021/05/09 07:24:47;;;;;;;12.00;6.28;;;;;;;14.03;52.53;101014.19;1798107;79;25702;-75
2021/05/09 07:27:23;;;;;;;7.83;5.40;;;;;;;14.00;50.27;101012.42;1829999;77;25752;-74
2021/05/09 07:29:58;;;;;;;8.58;5.97;;;;;;;13.98;51.80;101015.83;1812024;77;27885;-73
2021/05/09 07:32:34;;;;;;;6.90;5.40;;;;;;;14.21;50.99;101006.93;1826312;77;26189;-74
2021/05/09 07:35:11;;;;;;;11.10;5.90;;;;;;;14.21;51.71;100999.69;1830452;77;25745;-74
2021/05/09 07:37:47;;;;;;;6.83;5.07;;;;;;;14.27;49.66;100994.00;1797273;76;27729;-75
2021/05/09 07:40:23;;;;;;;6.72;4.90;;;;;;;14.51;50.41;100994.34;1816799;77;26310;-75
2021/05/09 07:42:59;;;;;;;7.30;5.20;;;;;;;14.49;49.79;100991.02;1813093;77;34354;-76
2021/05/09 07:45:35;;;;;;;7.97;5.30;;;;;;;14.74;50.10;100976.95;1757083;79;30624;-75
2021/05/09 07:48:11;;;;;;;7.33;5.83;;;;;;;14.94;49.38;100982.72;1808651;77;28440;-75
2021/05/09 07:50:46;;;;;;;8.53;5.03;;;;;;;15.10;48.56;100985.00;1761588;79;28109;-79
2021/05/09 07:53:22;;;;;;;6.10;5.00;;;;;;;15.25;47.73;100987.49;1795802;79;25721;-75
2021/05/09 07:55:59;;;;;;;7.80;4.70;;;;;;;15.20;48.88;100986.80;1828984;77;25745;-74
2021/05/09 07:58:35;;;;;;;8.03;4.50;;;;;;;15.24;48.72;100985.34;1830244;77;26223;-76
2021/05/09 08:01:11;;;;;;;6.03;4.30;;;;;;;15.29;48.53;100976.62;1783092;79;25748;-75
2021/05/09 08:03:47;;;;;;;6.70;4.90;;;;;;;15.33;48.08;100984.61;1835202;77;25713;-74
2021/05/09 08:06:23;;;;;;;6.37;4.70;;;;;;;15.34;48.18;100974.94;1767236;79;32448;-73
2021/05/09 08:08:58;;;;;;;5.67;4.50;;;;;;;15.61;48.63;100970.36;1785260;79;26301;-76
2021/05/09 08:11:34;;;;;;;6.55;4.42;;;;;;;15.71;48.60;100970.78;1823627;77;25765;-76
2021/05/09 08:14:10;;;;;;;6.55;4.83;;;;;;;15.82;48.46;100963.89;1803425;79;25757;-74
2021/05/09 08:16:46;;;;;;;8.30;4.78;;;;;;;15.85;47.97;100964.80;1833737;77;25809;-75
2021/05/09 08:19:21;;;;;;;6.65;4.60;;;;;;;15.81;47.75;100962.22;1801555;79;25763;-74
2021/05/09 08:21:57;;;;;;;6.33;4.22;;;;;;;15.79;47.89;100965.14;1814609;77;25751;-74
2021/05/09 08:24:33;;;;;;;8.90;3.90;;;;;;;15.81;47.17;100965.76;1836078;77;25736;-76
2021/05/09 08:27:09;;;;;;;7.55;4.62;;;;;;;15.83;47.56;100969.08;1826928;77;25673;-75
2021/05/09 08:29:45;;;;;;;10.63;4.62;;;;;;;15.83;47.06;100967.73;1793738;79;25703;-75
2021/05/09 08:32:21;;;;;;;8.15;4.47;;;;;;;15.88;47.91;100965.23;1784516;79;26068;-73
2021/05/09 08:34:58;;;;;;;7.42;5.08;;;;;;;15.95;48.32;100961.97;1819179;77;28449;-76
2021/05/09 08:37:34;;;;;;;5.35;4.53;;;;;;;16.28;48.14;100956.44;1868794;76;26264;-74
2021/05/09 08:40:13;;;;;;;7.97;4.37;;;;;;;16.29;47.19;100960.81;1830031;77;25731;-75
2021/05/09 08:42:51;;;;;;;6.05;4.65;;;;;;;16.31;47.42;100955.19;1822776;77;25783;-74
2021/05/09 08:45:27;;;;;;;5.58;3.90;;;;;;;16.31;46.35;100950.62;1832724;77;25671;-74
2021/05/09 08:48:05;;;;;;;5.25;4.22;;;;;;;16.31;47.29;100945.21;1823590;77;25843;-75
2021/05/09 08:50:41;;;;;;;7.35;5.05;;;;;;;16.34;47.31;100954.22;1766229;79;26012;-75
2021/05/09 08:53:18;;;;;;;7.53;5.30;;;;;;;16.41;48.12;100950.97;1773302;79;27987;-75
2021/05/09 08:55:53;;;;;;;7.80;4.97;;;;;;;16.70;46.42;100950.95;1763664;79;26334;-74
2021/05/09 08:58:29;;;;;;;7.25;4.33;;;;;;;16.70;47.14;100955.01;1793543;79;25646;-75
2021/05/09 09:01:05;;;;;;;5.97;4.47;;;;;;;16.74;46.27;100952.17;1829033;77;25778;-74
2021/05/09 09:03:42;;;;;;;6.73;5.10;;;;;;;16.74;46.95;100956.23;1817675;77;34270;-75
2021/05/09 09:06:41;;;;;;;9.53;5.20;;;;;;;16.98;44.20;100954.60;1767550;79;28650;-74
2021/05/09 09:09:24;;;;;;;11.00;4.92;;;;;;;17.13;45.82;100952.41;1803975;77;25757;-75
2021/05/09 09:12:00;;;;;;;6.40;4.58;;;;;;;17.07;45.83;100945.14;1788827;79;25752;-75
2021/05/09 09:14:47;;;;;;;5.97;4.55;;;;;;;17.05;46.61;100948.59;1781499;79;25666;-76
2021/05/09 09:17:23;;;;;;;5.30;3.67;;;;;;;17.08;47.28;100947.65;1797938;79;25723;-76
2021/05/09 09:22:56;;;;;;;3.80;3.40;;;;;;;17.34;44.43;100937.11;1823492;77;25747;-76
2021/05/09 09:25:34;;;;;;;8.38;3.22;;;;;;;17.25;45.77;100937.09;1791845;79;25758;-76
2021/05/09 09:28:10;;;;;;;6.40;3.83;;;;;;;17.25;45.80;100931.67;1825430;77;25781;-76
2021/05/09 09:30:55;;;;;;;6.55;4.00;;;;;;;17.27;46.07;100931.77;1809618;77;29142;-75
2021/05/09 09:33:30;;;;;;;5.33;3.33;;;;;;;17.49;45.21;100932.18;1825417;77;25690;-75
2021/05/09 09:36:12;;;;;;;3.45;2.87;;;;;;;17.39;45.26;100925.91;1878139;76;25738;-75
2021/05/09 09:38:51;;;;;;;5.20;2.90;;;;;;;17.42;45.59;100918.70;1828607;77;25761;-75
2021/05/09 09:41:26;;;;;;;3.55;3.17;;;;;;;17.42;47.04;100922.77;1776869;79;25719;-76
2021/05/09 09:44:07;;;;;;;4.50;3.22;;;;;;;17.47;44.54;100924.80;1828512;77;25739;-75
2021/05/09 09:46:53;;;;;;;5.22;3.35;;;;;;;17.53;43.82;100917.17;1785181;79;25685;-77
2021/05/09 09:49:31;;;;;;;4.87;3.15;;;;;;;17.62;45.73;100922.60;1794104;79;25791;-77
2021/05/09 09:52:10;;;;;;;4.58;2.60;;;;;;;17.65;44.98;100918.06;1825239;77;26354;-74
2021/05/09 09:54:48;;;;;;;3.92;3.10;;;;;;;17.61;45.48;100918.22;1826891;77;25802;-75
2021/05/09 09:57:30;;;;;;;3.45;2.72;;;;;;;17.59;45.91;100914.91;1793618;79;25728;-75
2021/05/09 10:00:13;;;;;;;6.75;3.17;;;;;;;17.64;45.67;100919.94;1824284;77;25747;-75
2021/05/09 10:02:49;;;;;;;3.98;2.87;;;;;;;17.68;45.65;100923.05;1785315;79;25673;-75
2021/05/09 10:05:25;;;;;;;4.85;3.00;;;;;;;17.75;45.14;100917.01;1809879;77;27790;-75
2021/05/09 10:08:00;;;;;;;6.05;3.10;;;;;;;18.00;45.93;100908.81;1732595;78;28459;-74
2021/05/09 10:10:39;;;;;;;4.03;2.45;;;;;;;18.25;45.17;100908.16;1821633;77;25631;-76
2021/05/09 10:13:15;;;;;;;5.08;3.02;;;;;;;18.25;45.13;100908.16;1794653;79;25769;-76
2021/05/09 10:15:53;;;;;;;4.63;2.80;;;;;;;18.28;44.63;100907.71;1815030;77;27866;-75
2021/05/09 10:18:30;;;;;;;4.55;2.75;;;;;;;18.50;43.98;100906.16;1825998;77;25740;-76
2021/05/09 10:21:06;;;;;;;2.90;2.60;;;;;;;18.41;44.21;100901.55;1811343;77;27868;-74
2021/05/09 10:24:16;;;;;;;3.97;2.90;;;;;;;18.62;43.85;100902.14;1811103;77;28243;-74
2021/05/09 10:27:01;;;;;;;3.27;2.67;;;;;;;18.82;43.40;100898.05;1804137;79;25758;-75
2021/05/09 10:29:43;;;;;;;4.70;2.55;;;;;;;18.75;43.62;100901.94;1831476;77;25720;-74
2021/05/09 10:32:24;;;;;;;5.00;2.62;;;;;;;18.77;44.81;100902.01;1831099;77;25864;-74
2021/05/09 10:35:07;;;;;;;3.60;2.65;;;;;;;18.87;45.31;100897.34;1796042;77;25664;-75
2021/05/09 10:37:57;;;;;;;5.12;2.42;;;;;;;18.96;43.76;100898.14;1793832;79;26374;-75
2021/05/09 10:40:37;;;;;;;5.42;2.52;;;;;;;18.96;43.58;100899.50;1786720;79;26432;-74
2021/05/09 10:43:18;;;;;;;6.60;3.60;;;;;;;18.90;43.13;100898.25;1824284;77;25661;-74
2021/05/09 10:45:55;;;;;;;3.95;2.45;;;;;;;18.91;42.76;100887.67;1784447;79;25754;-74
2021/05/09 10:48:32;;;;;;;4.27;2.47;;;;;;;18.95;43.19;100888.85;1746870;79;27868;-75
2021/05/09 10:51:25;;;;;;;2.87;2.12;;;;;;;19.20;43.34;100888.13;1829380;77;25768;-75
2021/05/09 10:54:23;;;;;;;5.40;2.25;;;;;;;19.18;42.91;100885.63;1824472;77;25742;-74
2021/05/09 10:56:58;;;;;;;3.08;2.12;;;;;;;19.15;43.21;100883.92;1833902;77;25792;-74
2021/05/09 10:59:59;;;;;;;3.33;2.47;;;;;;;19.18;42.61;100879.39;1796429;79;25659;-75
2021/05/09 11:02:34;;;;;;;4.03;2.22;;;;;;;19.27;43.27;100879.31;1794933;79;25690;-75
2021/05/09 11:05:10;;;;;;;4.25;2.30;;;;;;;19.33;42.71;100870.23;1825035;77;25680;-75
2021/05/09 11:07:47;;;;;;;3.70;2.10;;;;;;;19.41;41.57;100870.43;1791230;75;28057;-75
2021/05/09 11:10:38;;;;;;;4.27;2.47;;;;;;;19.63;41.73;100872.83;1776246;79;28112;-75
2021/05/09 11:13:14;;;;;;;4.97;2.08;;;;;;;19.81;41.29;100866.69;1793886;79;25676;-74
2021/05/09 11:16:17;;;;;;;3.02;1.90;;;;;;;19.76;41.18;100862.50;1793396;79;25731;-75
2021/05/09 11:19:14;;;;;;;3.75;2.20;;;;;;;19.78;40.54;100861.72;1783004;78;25705;31
2021/05/09 11:21:56;;;;;;;2.33;1.87;;;;;;;19.82;41.72;100857.45;1778989;78;28499;-75
2021/05/09 11:24:35;;;;;;;2.45;1.90;;;;;;;20.10;40.68;100858.56;1791551;78;26599;-75
2021/05/09 11:27:14;;;;;;;2.75;2.02;;;;;;;20.05;39.95;100853.84;1787635;79;25683;-74
2021/05/09 11:29:52;;;;;;;2.42;1.77;;;;;;;20.02;39.73;100850.80;1783204;79;25759;-75
2021/05/09 11:32:29;;;;;;;4.33;1.70;;;;;;;20.02;39.55;100834.48;1801693;79;25611;-75
2021/05/09 11:35:07;;;;;;;3.72;2.20;;;;;;;20.00;40.04;100836.89;1798051;79;26062;-74
2021/05/09 11:37:43;;;;;;;2.27;2.08;;;;;;;20.02;39.33;100829.84;1825514;77;25581;-75
2021/05/09 11:40:19;;;;;;;3.27;1.80;;;;;;;20.05;39.09;100831.26;1804190;78;26259;-74
2021/05/09 11:42:55;;;;;;;3.57;2.17;;;;;;;20.03;39.42;100829.32;1746553;79;28312;-75
2021/05/09 11:45:30;;;;;;;2.17;1.70;;;;;;;20.31;39.42;100827.45;1828002;77;25710;-74
2021/05/09 11:48:07;;;;;;;4.08;1.80;;;;;;;20.31;40.37;100824.73;1830946;77;25707;-75
2021/05/09 11:50:42;;;;;;;3.50;2.55;;;;;;;20.35;38.46;100825.89;1760204;79;33783;-75
2021/05/09 11:53:21;;;;;;;2.40;2.00;;;;;;;20.58;38.03;100826.27;1796025;79;25646;-74
2021/05/09 11:56:00;;;;;;;3.65;1.80;;;;;;;20.52;38.16;100828.09;1824302;77;26314;-75
2021/05/09 11:58:36;;;;;;;4.03;1.62;;;;;;;20.53;37.82;100828.93;1801796;78;25347;-74
2021/05/09 12:01:12;;;;;;;3.30;2.00;;;;;;;20.54;38.73;100824.59;1775839;79;26163;-75
2021/05/09 12:03:47;;;;;;;3.92;1.90;;;;;;;20.55;39.20;100822.70;1803376;79;25649;-74
2021/05/09 12:06:23;;;;;;;2.62;1.85;;;;;;;20.64;39.09;100819.83;1792086;77;25688;-75
2021/05/09 12:08:59;;;;;;;3.83;1.72;;;;;;;20.69;38.56;100818.04;1785369;79;25712;-75
2021/05/09 12:11:38;;;;;;;4.55;2.17;;;;;;;20.69;38.46;100819.93;1796788;79;25681;-74